createdAt,value
2023-02-17T00:01:38.142Z,6.07
2023-02-17T00:04:06.362Z,6.33
2023-02-17T00:06:36.312Z,5.68
2023-02-17T00:09:04.452Z,5.97
2023-02-17T00:11:32.600Z,6.10
2023-02-17T00:14:01.405Z,5.47
2023-02-17T00:16:30.884Z,5.82
2023-02-17T00:19:01.683Z,4.90
2023-02-17T00:21:31.931Z,5.40
2023-02-17T00:24:02.100Z,5.75
2023-02-17T00:26:30.409Z,4.90
2023-02-17T00:29:00.190Z,4.80
2023-02-17T00:31:28.869Z,4.82
2023-02-17T00:33:57.587Z,4.35
2023-02-17T00:36:27.455Z,4.80
2023-02-17T00:38:57.927Z,4.83
2023-02-17T00:41:28.531Z,4.60
2023-02-17T00:43:57.013Z,4.53
2023-02-17T00:46:25.703Z,4.97
2023-02-17T00:48:54.784Z,4.27
2023-02-17T00:51:24.094Z,4.55
2023-02-17T00:53:52.844Z,4.47
2023-02-17T00:56:21.416Z,4.17
2023-02-17T00:58:51.009Z,4.67
2023-02-17T01:01:19.592Z,4.07
2023-02-17T01:03:47.687Z,5.07
2023-02-17T01:06:23.513Z,4.40
2023-02-17T01:08:52.538Z,4.57
2023-02-17T01:11:20.839Z,4.63
2023-02-17T01:13:51.025Z,4.22
2023-02-17T01:16:20.875Z,4.35
2023-02-17T01:18:49.551Z,4.78
2023-02-17T01:21:19.061Z,4.47
2023-02-17T01:23:47.665Z,4.30
2023-02-17T01:26:17.143Z,4.13
2023-02-17T01:28:45.440Z,4.60
2023-02-17T01:31:16.794Z,4.32
2023-02-17T01:33:45.825Z,4.47
2023-02-17T01:36:15.753Z,4.35
2023-02-17T01:38:44.393Z,3.95
2023-02-17T01:41:14.218Z,4.43
2023-02-17T01:43:42.462Z,4.38
2023-02-17T01:46:11.630Z,4.50
2023-02-17T01:48:46.324Z,4.43
2023-02-17T01:51:18.052Z,3.75
2023-02-17T01:53:52.153Z,4.32
2023-02-17T01:56:20.284Z,4.20
2023-02-17T01:58:53.481Z,4.55
2023-02-17T02:01:22.236Z,4.32
2023-02-17T02:03:54.094Z,3.97
2023-02-17T02:06:25.944Z,3.47
2023-02-17T02:08:59.586Z,4.03
2023-02-17T02:11:27.704Z,3.80
2023-02-17T02:13:56.384Z,3.63
2023-02-17T02:16:30.574Z,3.67
2023-02-17T02:19:06.357Z,4.18
2023-02-17T02:22:08.936Z,3.60
2023-02-17T02:24:48.284Z,3.58
2023-02-17T02:27:41.158Z,3.88
2023-02-17T02:30:46.632Z,3.80
2023-02-17T02:33:24.099Z,3.95
2023-02-17T02:35:58.967Z,3.47
2023-02-17T02:38:32.985Z,3.83
2023-02-17T02:41:05.930Z,3.87
2023-02-17T02:43:34.264Z,3.53
2023-02-17T02:46:02.459Z,4.03
2023-02-17T02:48:32.309Z,3.90
2023-02-17T02:51:20.275Z,3.70
2023-02-17T02:54:33.065Z,3.93
2023-02-17T02:57:14.886Z,3.77
2023-02-17T02:59:51.724Z,3.80
2023-02-17T03:02:28.615Z,3.73
2023-02-17T03:05:07.194Z,3.80
2023-02-17T03:07:38.355Z,4.27
2023-02-17T03:10:09.188Z,4.40
2023-02-17T03:12:39.553Z,3.53
2023-02-17T03:15:14.774Z,3.90
2023-02-17T03:17:42.854Z,3.80
2023-02-17T03:20:14.675Z,4.53
2023-02-17T03:22:46.660Z,3.77
2023-02-17T03:25:15.677Z,3.80
2023-02-17T03:27:43.857Z,4.10
2023-02-17T03:30:13.108Z,3.47
2023-02-17T03:32:42.780Z,3.43
2023-02-17T03:35:12.603Z,3.70
2023-02-17T03:37:40.773Z,4.03
2023-02-17T03:40:10.505Z,4.00
2023-02-17T03:42:38.654Z,4.00
2023-02-17T03:45:07.971Z,3.83
2023-02-17T03:47:36.567Z,3.93
2023-02-17T03:50:05.559Z,3.95
2023-02-17T03:52:35.496Z,3.90
2023-02-17T03:55:04.058Z,3.40
2023-02-17T03:57:34.819Z,3.40
2023-02-17T04:00:04.949Z,3.73
2023-02-17T04:02:33.065Z,3.63
2023-02-17T04:05:01.637Z,3.37
2023-02-17T04:07:30.310Z,3.43
2023-02-17T04:09:59.802Z,3.70
2023-02-17T04:12:28.431Z,3.63
2023-02-17T04:14:57.017Z,3.57
2023-02-17T04:17:25.114Z,3.87
2023-02-17T04:19:53.737Z,3.40
2023-02-17T04:22:21.816Z,3.47
2023-02-17T04:24:49.927Z,3.63
2023-02-17T04:27:19.856Z,3.20
2023-02-17T04:29:47.938Z,3.27
2023-02-17T04:32:16.543Z,3.17
2023-02-17T04:34:45.130Z,3.07
2023-02-17T04:37:13.688Z,3.50
2023-02-17T04:39:41.932Z,3.38
2023-02-17T04:42:10.529Z,3.45
2023-02-17T04:44:40.478Z,3.53
2023-02-17T04:47:08.617Z,3.43
2023-02-17T04:49:36.681Z,3.70
2023-02-17T04:52:05.528Z,3.30
2023-02-17T04:54:34.116Z,3.60
2023-02-17T04:57:02.190Z,3.47
2023-02-17T04:59:30.776Z,3.75
2023-02-17T05:02:00.244Z,4.13
2023-02-17T05:04:28.834Z,3.77
2023-02-17T05:06:57.462Z,3.27
2023-02-17T05:09:25.618Z,3.20
2023-02-17T05:11:54.320Z,3.73
2023-02-17T05:14:22.492Z,3.30
2023-02-17T05:16:51.090Z,3.03
2023-02-17T05:19:20.507Z,3.33
2023-02-17T05:21:49.084Z,3.72
2023-02-17T05:24:17.204Z,3.33
2023-02-17T05:26:45.864Z,3.00
2023-02-17T05:29:13.990Z,3.27
2023-02-17T05:31:42.192Z,3.00
2023-02-17T05:34:10.302Z,3.03
2023-02-17T05:36:40.296Z,3.40
2023-02-17T05:39:09.069Z,3.40
2023-02-17T05:41:37.212Z,3.20
2023-02-17T05:44:06.177Z,2.70
2023-02-17T05:46:34.922Z,3.33
2023-02-17T05:49:03.552Z,2.93
2023-02-17T05:51:31.708Z,3.10
2023-02-17T05:54:01.622Z,3.03
2023-02-17T05:56:30.334Z,3.20
2023-02-17T05:58:58.434Z,2.80
2023-02-17T06:01:27.072Z,3.00
2023-02-17T06:03:55.887Z,3.20
2023-02-17T06:06:23.962Z,3.22
2023-02-17T06:08:52.578Z,2.88
2023-02-17T06:11:22.058Z,2.90
2023-02-17T06:13:50.188Z,3.30
2023-02-17T06:16:18.755Z,2.75
2023-02-17T06:18:47.363Z,2.88
2023-02-17T06:21:15.927Z,3.03
2023-02-17T06:23:44.478Z,3.22
2023-02-17T06:26:12.596Z,3.15
2023-02-17T06:28:42.532Z,2.90
2023-02-17T06:31:10.710Z,3.27
2023-02-17T06:33:39.316Z,2.90
2023-02-17T06:36:08.622Z,3.08
2023-02-17T06:38:39.031Z,3.33
2023-02-17T06:41:07.178Z,2.83
2023-02-17T06:43:35.752Z,3.33
2023-02-17T06:46:05.865Z,2.90
2023-02-17T06:48:34.697Z,3.05
2023-02-17T06:51:02.809Z,3.00
2023-02-17T06:53:31.369Z,2.60
2023-02-17T06:55:59.546Z,2.63
2023-02-17T06:58:27.662Z,2.75
2023-02-17T07:00:56.742Z,3.20
2023-02-17T07:03:26.757Z,2.92
2023-02-17T07:05:59.483Z,2.85
2023-02-17T07:08:27.567Z,2.83
2023-02-17T07:10:56.268Z,2.97
2023-02-17T07:13:24.830Z,2.90
2023-02-17T07:15:52.963Z,2.63
2023-02-17T07:18:21.550Z,2.83
2023-02-17T07:20:51.003Z,3.30
2023-02-17T07:23:19.512Z,3.17
2023-02-17T07:25:47.596Z,2.50
2023-02-17T07:28:16.265Z,2.92
2023-02-17T07:30:45.535Z,2.67
2023-02-17T07:33:14.128Z,2.50
2023-02-17T07:35:44.426Z,2.75
2023-02-17T07:38:14.559Z,2.38
2023-02-17T07:40:43.108Z,2.72
2023-02-17T07:43:11.628Z,2.53
2023-02-17T07:45:40.169Z,2.70
2023-02-17T07:48:08.284Z,2.70
2023-02-17T07:50:36.798Z,2.50
2023-02-17T07:53:04.852Z,2.53
2023-02-17T07:55:34.812Z,3.03
2023-02-17T07:58:02.904Z,2.80
2023-02-17T08:00:31.492Z,2.63
2023-02-17T08:03:00.144Z,2.50
2023-02-17T08:05:28.769Z,2.40
2023-02-17T08:08:11.192Z,3.08
2023-02-17T08:10:58.769Z,2.08
2023-02-17T08:13:28.785Z,2.20
2023-02-17T08:15:56.863Z,2.47
2023-02-17T08:18:25.910Z,2.40
2023-02-17T08:20:54.117Z,2.10
2023-02-17T08:23:22.712Z,1.98
2023-02-17T08:25:52.676Z,2.20
2023-02-17T08:28:22.131Z,2.10
2023-02-17T08:30:50.439Z,2.33
2023-02-17T08:33:20.067Z,2.63
2023-02-17T08:35:48.357Z,2.60
2023-02-17T08:38:16.984Z,2.38
2023-02-17T08:40:45.505Z,2.53
2023-02-17T08:43:15.690Z,2.03
2023-02-17T08:45:44.152Z,2.35
2023-02-17T08:48:12.721Z,2.50
2023-02-17T08:50:40.837Z,2.28
2023-02-17T08:53:09.546Z,1.98
2023-02-17T08:55:48.687Z,2.30
2023-02-17T08:58:19.516Z,2.33
2023-02-17T09:00:48.123Z,1.88
2023-02-17T09:03:16.402Z,2.10
2023-02-17T09:05:44.655Z,2.13
2023-02-17T09:08:13.188Z,2.17
2023-02-17T09:10:41.896Z,2.17
2023-02-17T09:13:09.987Z,2.25
2023-02-17T09:15:39.944Z,2.33
2023-02-17T09:18:08.142Z,2.20
2023-02-17T09:20:38.170Z,2.37
2023-02-17T09:23:06.798Z,2.30
2023-02-17T09:25:35.108Z,2.45
2023-02-17T09:28:03.673Z,2.33
2023-02-17T09:30:32.582Z,2.33
2023-02-17T09:33:02.794Z,2.33
2023-02-17T09:35:32.090Z,2.30
2023-02-17T09:38:00.770Z,2.17
2023-02-17T09:40:39.526Z,2.00
2023-02-17T09:43:12.507Z,1.95
2023-02-17T09:45:42.387Z,1.83
2023-02-17T09:48:14.652Z,2.00
2023-02-17T09:50:47.295Z,1.98
2023-02-17T09:53:24.028Z,2.00
2023-02-17T09:55:55.126Z,1.83
2023-02-17T09:58:27.632Z,1.70
2023-02-17T10:00:59.032Z,2.17
2023-02-17T10:03:36.153Z,1.98
2023-02-17T10:06:14.879Z,2.28
2023-02-17T10:08:50.063Z,2.03
2023-02-17T10:11:28.530Z,1.75
2023-02-17T10:14:01.170Z,1.80
2023-02-17T10:16:34.472Z,1.92
2023-02-17T10:19:12.208Z,1.95
2023-02-17T10:21:47.333Z,2.08
2023-02-17T10:24:15.994Z,1.85
2023-02-17T10:26:58.466Z,2.05
2023-02-17T10:29:37.856Z,1.70
2023-02-17T10:32:19.941Z,1.75
2023-02-17T10:35:00.339Z,1.67
2023-02-17T10:37:39.417Z,1.67
2023-02-17T10:40:21.922Z,2.15
2023-02-17T10:42:53.388Z,1.50
2023-02-17T10:45:30.162Z,1.90
2023-02-17T10:48:03.584Z,1.98
2023-02-17T10:50:33.163Z,1.52
2023-02-17T10:53:01.753Z,1.50
2023-02-17T10:55:38.743Z,1.88
2023-02-17T10:58:14.865Z,1.45
2023-02-17T11:00:43.984Z,1.52
2023-02-17T11:03:21.477Z,1.50
2023-02-17T11:05:56.955Z,1.77
2023-02-17T11:08:34.016Z,1.27
2023-02-17T11:11:05.571Z,1.65
2023-02-17T11:13:37.654Z,1.90
2023-02-17T11:16:07.375Z,2.10
2023-02-17T11:18:40.776Z,2.10
2023-02-17T11:21:13.089Z,1.95
2023-02-17T11:23:50.663Z,1.80
2023-02-17T11:26:23.737Z,1.50
2023-02-17T11:28:52.003Z,1.45
2023-02-17T11:31:26.231Z,1.77
2023-02-17T11:33:56.841Z,1.80
2023-02-17T11:36:28.986Z,1.58
2023-02-17T11:38:58.407Z,2.47
2023-02-17T11:41:26.989Z,1.70
2023-02-17T11:43:58.578Z,1.63
2023-02-17T11:46:33.290Z,1.80
2023-02-17T11:49:25.549Z,1.90
2023-02-17T11:52:06.485Z,1.58
2023-02-17T11:54:49.343Z,1.40
2023-02-17T11:57:35.145Z,1.58
2023-02-17T12:00:16.264Z,1.33
2023-02-17T12:03:11.400Z,1.50
2023-02-17T12:05:57.863Z,1.67
2023-02-17T12:08:39.734Z,1.33
2023-02-17T12:11:18.085Z,1.35
2023-02-17T12:13:57.158Z,1.45
2023-02-17T12:16:43.476Z,1.20
2023-02-17T12:19:27.728Z,1.40
2023-02-17T12:22:08.838Z,1.02
2023-02-17T12:24:55.093Z,1.02
2023-02-17T12:27:34.638Z,0.70
2023-02-17T12:30:22.658Z,0.90
2023-02-17T12:33:04.104Z,1.73
2023-02-17T12:35:42.462Z,1.35
2023-02-17T12:38:17.161Z,1.10
2023-02-17T12:40:53.349Z,1.30
2023-02-17T12:43:27.563Z,1.10
2023-02-17T12:45:58.071Z,1.10
2023-02-17T12:48:35.354Z,1.30
2023-02-17T12:51:11.168Z,0.90
2023-02-17T12:53:46.240Z,0.98
2023-02-17T12:56:44.523Z,1.00
2023-02-17T12:59:18.522Z,1.08
2023-02-17T13:01:54.581Z,0.70
2023-02-17T13:04:26.761Z,1.00
2023-02-17T13:07:03.491Z,1.20
2023-02-17T13:09:36.027Z,1.10
2023-02-17T13:12:17.040Z,1.02
2023-02-17T13:14:48.537Z,1.02
2023-02-17T13:17:28.129Z,1.20
2023-02-17T13:20:08.010Z,1.02
2023-02-17T13:22:36.921Z,1.13
2023-02-17T13:25:05.646Z,0.93
2023-02-17T13:27:35.953Z,1.30
2023-02-17T13:30:10.189Z,1.23
2023-02-17T13:32:39.646Z,1.23
2023-02-17T13:35:19.583Z,1.10
2023-02-17T13:37:48.447Z,1.20
2023-02-17T13:40:41.123Z,1.10
2023-02-17T13:43:28.464Z,1.20
2023-02-17T13:46:01.877Z,1.58
2023-02-17T13:48:32.671Z,1.60
2023-02-17T13:51:02.644Z,1.38
2023-02-17T13:53:32.564Z,1.40
2023-02-17T13:56:02.924Z,1.40
2023-02-17T13:58:34.603Z,1.10
2023-02-17T14:01:06.996Z,1.05
2023-02-17T14:03:37.580Z,1.10
2023-02-17T14:06:06.576Z,1.00
2023-02-17T14:08:38.170Z,1.13
2023-02-17T14:11:10.600Z,1.08
2023-02-17T14:13:40.628Z,1.30
2023-02-17T14:16:29.563Z,1.02
2023-02-17T14:19:06.884Z,1.20
2023-02-17T14:21:36.729Z,1.15
2023-02-17T14:24:05.497Z,1.00
2023-02-17T14:26:38.044Z,1.15
2023-02-17T14:29:08.852Z,1.40
2023-02-17T14:31:43.439Z,1.17
2023-02-17T14:34:25.871Z,1.27
2023-02-17T14:36:54.538Z,1.17
2023-02-17T14:39:23.041Z,0.90
2023-02-17T14:41:51.251Z,0.90
2023-02-17T14:44:19.337Z,0.85
2023-02-17T14:46:49.357Z,1.20
2023-02-17T14:49:17.488Z,1.20
2023-02-17T14:51:45.587Z,0.95
2023-02-17T14:54:16.862Z,0.95
2023-02-17T14:56:49.731Z,0.90
2023-02-17T14:59:17.847Z,0.88
2023-02-17T15:01:46.117Z,1.17
2023-02-17T15:04:16.083Z,0.93
2023-02-17T15:06:45.825Z,0.90
2023-02-17T15:09:17.206Z,1.20
2023-02-17T15:11:48.904Z,0.93
2023-02-17T15:14:19.990Z,1.73
2023-02-17T15:16:49.638Z,1.60
2023-02-17T15:19:21.196Z,1.50
2023-02-17T15:21:51.915Z,1.15
2023-02-17T15:24:23.782Z,1.20
2023-02-17T15:26:52.195Z,1.20
2023-02-17T15:29:23.045Z,1.30
2023-02-17T15:31:52.618Z,1.60
2023-02-17T15:34:24.938Z,1.55
2023-02-17T15:36:53.510Z,1.50
2023-02-17T15:39:23.379Z,1.83
2023-02-17T15:41:54.742Z,2.70
2023-02-17T15:44:27.105Z,3.00
2023-02-17T15:46:57.385Z,2.00
2023-02-17T15:49:26.934Z,1.60
2023-02-17T15:51:55.049Z,1.70
2023-02-17T15:54:23.171Z,2.97
2023-02-17T15:56:53.954Z,2.20
2023-02-17T15:59:25.786Z,2.70
2023-02-17T16:01:56.094Z,3.10
2023-02-17T16:04:24.701Z,2.42
2023-02-17T16:06:54.186Z,1.77
2023-02-17T16:09:22.894Z,1.75
2023-02-17T16:11:53.715Z,1.40
2023-02-17T16:14:27.889Z,1.63
2023-02-17T16:16:56.546Z,2.05
2023-02-17T16:19:25.140Z,4.13
2023-02-17T16:21:54.661Z,3.50
2023-02-17T16:24:22.772Z,2.42
2023-02-17T16:26:51.416Z,2.05
2023-02-17T16:29:21.841Z,2.50
2023-02-17T16:31:51.034Z,2.30
2023-02-17T16:34:21.921Z,3.33
2023-02-17T16:36:51.403Z,4.65
2023-02-17T16:39:22.191Z,3.58
2023-02-17T16:41:51.401Z,2.63
2023-02-17T16:44:21.739Z,2.08
2023-02-17T16:46:52.495Z,1.80
2023-02-17T16:49:24.812Z,1.50
2023-02-17T16:51:53.129Z,1.50
2023-02-17T16:54:22.617Z,1.15
2023-02-17T16:56:53.052Z,1.30
2023-02-17T16:59:23.004Z,1.40
2023-02-17T17:01:53.249Z,1.20
2023-02-17T17:04:22.614Z,1.60
2023-02-17T17:06:52.934Z,1.70
2023-02-17T17:09:25.202Z,1.58
2023-02-17T17:11:53.353Z,1.70
2023-02-17T17:14:21.966Z,1.30
2023-02-17T17:16:56.314Z,1.42
2023-02-17T17:19:24.631Z,1.20
2023-02-17T17:21:52.911Z,1.38
2023-02-17T17:24:22.867Z,1.48
2023-02-17T17:26:52.189Z,1.27
2023-02-17T17:29:21.210Z,1.15
2023-02-17T17:31:50.037Z,1.20
2023-02-17T17:34:18.240Z,1.58
2023-02-17T17:36:47.522Z,1.60
2023-02-17T17:39:18.179Z,1.60
2023-02-17T17:41:48.152Z,1.55
2023-02-17T17:44:16.649Z,1.60
2023-02-17T17:46:45.642Z,1.70
2023-02-17T17:49:18.433Z,1.70
2023-02-17T17:51:46.920Z,1.83
2023-02-17T17:54:15.582Z,1.58
2023-02-17T17:56:44.304Z,1.65
2023-02-17T17:59:15.194Z,1.60
2023-02-17T18:01:45.636Z,1.70
2023-02-17T18:04:14.181Z,1.73
2023-02-17T18:06:46.165Z,1.90
2023-02-17T18:09:30.625Z,1.90
2023-02-17T18:12:02.700Z,1.85
2023-02-17T18:14:33.605Z,2.22
2023-02-17T18:17:02.286Z,2.00
2023-02-17T18:19:31.567Z,2.00
2023-02-17T18:21:59.714Z,2.10
2023-02-17T18:24:28.246Z,2.30
2023-02-17T18:26:56.453Z,2.10
2023-02-17T18:29:24.565Z,2.20
2023-02-17T18:31:54.243Z,2.60
2023-02-17T18:34:22.438Z,2.58
2023-02-17T18:36:50.631Z,2.60
2023-02-17T18:39:19.273Z,2.45
2023-02-17T18:41:47.734Z,2.67
2023-02-17T18:44:15.885Z,2.88
2023-02-17T18:46:44.180Z,2.50
2023-02-17T18:49:15.460Z,2.72
2023-02-17T18:51:43.981Z,2.35
2023-02-17T18:54:12.955Z,2.78
2023-02-17T18:56:41.603Z,2.53
2023-02-17T18:59:09.756Z,2.80
2023-02-17T19:01:40.952Z,2.45
2023-02-17T19:04:11.781Z,2.58
2023-02-17T19:06:41.334Z,3.38
2023-02-17T19:09:09.568Z,3.20
2023-02-17T19:11:38.597Z,3.33
2023-02-17T19:14:07.152Z,3.00
2023-02-17T19:16:35.257Z,2.88
2023-02-17T19:19:05.696Z,2.70
2023-02-17T19:21:36.354Z,2.65
2023-02-17T19:24:06.184Z,3.45
2023-02-17T19:26:35.143Z,2.65
2023-02-17T19:29:03.667Z,2.45
2023-02-17T19:31:32.410Z,3.40
2023-02-17T19:34:00.535Z,2.67
2023-02-17T19:36:29.327Z,2.78
2023-02-17T19:38:58.924Z,2.97
2023-02-17T19:41:28.393Z,2.90
2023-02-17T19:43:56.517Z,2.55
2023-02-17T19:46:26.226Z,3.00
2023-02-17T19:48:54.317Z,2.90
2023-02-17T19:51:23.158Z,2.80
2023-02-17T19:53:51.571Z,2.53
2023-02-17T19:56:21.907Z,2.70
2023-02-17T19:58:52.006Z,2.90
2023-02-17T20:01:23.706Z,2.38
2023-02-17T20:03:52.231Z,2.33
2023-02-17T20:06:22.225Z,2.25
2023-02-17T20:08:54.811Z,2.00
2023-02-17T20:11:23.788Z,2.20
2023-02-17T20:13:53.343Z,1.90
2023-02-17T20:16:22.864Z,2.30
2023-02-17T20:18:51.608Z,2.10
2023-02-17T20:21:23.079Z,1.83
2023-02-17T20:23:51.684Z,2.17
2023-02-17T20:26:23.911Z,1.85
2023-02-17T20:28:54.022Z,2.40
2023-02-17T20:31:23.214Z,2.00
2023-02-17T20:33:51.716Z,2.05
2023-02-17T20:36:21.914Z,2.08
2023-02-17T20:38:50.898Z,2.55
2023-02-17T20:41:20.744Z,2.60
2023-02-17T20:43:49.714Z,2.00
2023-02-17T20:46:23.102Z,2.40
2023-02-17T20:48:52.025Z,2.15
2023-02-17T20:51:20.532Z,1.95
2023-02-17T20:53:49.683Z,2.15
2023-02-17T20:56:20.594Z,1.63
2023-02-17T20:58:49.945Z,2.10
2023-02-17T21:01:19.969Z,2.00
2023-02-17T21:03:49.403Z,2.08
2023-02-17T21:06:22.781Z,1.98
2023-02-17T21:08:52.961Z,2.00
2023-02-17T21:11:21.727Z,2.08
2023-02-17T21:13:50.333Z,1.90
2023-02-17T21:16:22.188Z,1.60
2023-02-17T21:18:50.929Z,1.80
2023-02-17T21:21:19.171Z,1.85
2023-02-17T21:23:48.512Z,2.08
2023-02-17T21:26:17.746Z,1.88
2023-02-17T21:28:48.593Z,2.00
2023-02-17T21:31:17.335Z,1.92
2023-02-17T21:33:46.834Z,2.22
2023-02-17T21:36:18.239Z,2.08
2023-02-17T21:38:47.197Z,1.70
2023-02-17T21:41:17.986Z,2.40
2023-02-17T21:44:04.344Z,2.45
2023-02-17T21:46:32.997Z,1.95
2023-02-17T21:49:03.439Z,1.80
2023-02-17T21:51:31.576Z,1.48
2023-02-17T21:54:00.344Z,1.98
2023-02-17T21:56:28.658Z,2.13
2023-02-17T21:58:57.759Z,2.00
2023-02-17T22:01:27.988Z,2.22
2023-02-17T22:03:57.790Z,2.15
2023-02-17T22:06:29.739Z,2.70
2023-02-17T22:08:59.796Z,2.20
2023-02-17T22:11:30.746Z,2.20
2023-02-17T22:14:00.619Z,2.30
2023-02-17T22:16:30.788Z,2.40
2023-02-17T22:18:59.638Z,2.17
2023-02-17T22:21:30.343Z,2.40
2023-02-17T22:23:58.860Z,2.78
2023-02-17T22:26:28.596Z,2.50
2023-02-17T22:28:57.255Z,2.65
2023-02-17T22:31:28.413Z,2.35
2023-02-17T22:33:57.779Z,2.40
2023-02-17T22:36:27.534Z,2.50
2023-02-17T22:38:57.000Z,2.58
2023-02-17T22:41:26.724Z,2.30
2023-02-17T22:43:55.733Z,2.25
2023-02-17T22:46:27.161Z,2.15
2023-02-17T22:48:57.147Z,2.35
2023-02-17T22:51:29.020Z,2.15
2023-02-17T22:53:59.180Z,2.10
2023-02-17T22:56:27.571Z,2.25
2023-02-17T22:59:01.258Z,2.33
2023-02-17T23:01:30.892Z,2.40
2023-02-17T23:03:59.263Z,2.22
2023-02-17T23:06:29.586Z,2.33
2023-02-17T23:08:59.608Z,2.10
2023-02-17T23:11:47.677Z,2.45
2023-02-17T23:14:18.152Z,2.00
2023-02-17T23:16:47.846Z,2.08
2023-02-17T23:19:20.185Z,2.33
2023-02-17T23:21:50.363Z,2.00
2023-02-17T23:24:21.625Z,2.40
2023-02-17T23:26:51.211Z,2.00
2023-02-17T23:29:19.663Z,1.80
2023-02-17T23:31:48.108Z,2.00
2023-02-17T23:34:17.360Z,2.10
2023-02-17T23:36:47.198Z,2.03
2023-02-17T23:39:16.769Z,2.10
2023-02-17T23:41:46.429Z,2.28
2023-02-17T23:44:15.981Z,1.98
2023-02-17T23:46:45.308Z,1.90
2023-02-17T23:49:15.456Z,1.77
2023-02-17T23:51:43.947Z,1.77
2023-02-17T23:54:12.693Z,1.80
2023-02-17T23:56:40.850Z,2.10
2023-02-17T23:59:12.126Z,2.25
